createdAt,value
2023-10-30T00:00:09.464Z,100.00
2023-10-30T00:02:44.995Z,100.00
2023-10-30T00:05:17.220Z,100.00
2023-10-30T00:07:55.465Z,100.00
2023-10-30T00:10:27.935Z,100.00
2023-10-30T00:13:07.956Z,100.00
2023-10-30T00:15:40.103Z,100.00
2023-10-30T00:18:18.277Z,100.00
2023-10-30T00:20:52.980Z,100.00
2023-10-30T00:23:28.105Z,100.00
2023-10-30T00:26:03.542Z,100.00
2023-10-30T00:28:41.218Z,100.00
2023-10-30T00:31:12.877Z,100.00
2023-10-30T00:33:54.481Z,100.00
2023-10-30T00:36:32.738Z,100.00
2023-10-30T00:39:12.976Z,100.00
2023-10-30T00:41:48.943Z,100.00
2023-10-30T00:44:26.646Z,100.00
2023-10-30T00:47:00.399Z,100.00
2023-10-30T00:49:33.156Z,100.00
2023-10-30T00:52:05.364Z,100.00
2023-10-30T00:54:37.480Z,100.00
2023-10-30T00:57:07.102Z,100.00
2023-10-30T00:59:48.573Z,100.00
2023-10-30T01:02:25.265Z,100.00
2023-10-30T01:05:01.496Z,100.00
2023-10-30T01:07:37.015Z,100.00
2023-10-30T01:10:10.398Z,100.00
2023-10-30T01:12:53.861Z,100.00
2023-10-30T01:15:31.495Z,100.00
2023-10-30T01:18:04.380Z,100.00
2023-10-30T01:20:46.125Z,100.00
2023-10-30T01:23:23.097Z,100.00
2023-10-30T01:26:01.860Z,100.00
2023-10-30T01:28:42.957Z,100.00
2023-10-30T01:31:26.041Z,100.00
2023-10-30T01:33:58.847Z,100.00
2023-10-30T01:36:34.061Z,100.00
2023-10-30T01:39:09.308Z,100.00
2023-10-30T01:41:44.040Z,100.00
2023-10-30T01:44:19.154Z,100.00
2023-10-30T01:46:59.979Z,100.00
2023-10-30T01:49:34.611Z,100.00
2023-10-30T01:52:12.553Z,100.00
2023-10-30T01:54:48.271Z,100.00
2023-10-30T01:57:27.280Z,100.00
2023-10-30T02:00:04.733Z,100.00
2023-10-30T02:02:45.772Z,100.00
2023-10-30T02:07:59.159Z,100.00
2023-10-30T02:10:34.642Z,100.00
2023-10-30T02:13:13.926Z,100.00
2023-10-30T02:15:54.589Z,100.00
2023-10-30T02:18:31.889Z,100.00
2023-10-30T02:21:07.875Z,100.00
2023-10-30T02:23:40.380Z,100.00
2023-10-30T02:26:18.687Z,100.00
2023-10-30T02:28:53.574Z,100.00
2023-10-30T02:31:31.660Z,100.00
2023-10-30T02:34:12.468Z,100.00
2023-10-30T02:36:42.704Z,100.00
2023-10-30T02:39:20.521Z,100.00
2023-10-30T02:41:58.506Z,100.00
2023-10-30T02:44:31.312Z,100.00
2023-10-30T02:47:05.893Z,100.00
2023-10-30T02:49:40.049Z,100.00
2023-10-30T02:52:12.859Z,100.00
2023-10-30T02:54:53.965Z,100.00
2023-10-30T02:57:29.139Z,100.00
2023-10-30T03:00:04.755Z,100.00
2023-10-30T03:02:37.192Z,100.00
2023-10-30T03:05:10.651Z,100.00
2023-10-30T03:07:46.375Z,100.00
2023-10-30T03:10:20.301Z,100.00
2023-10-30T03:12:58.941Z,100.00
2023-10-30T03:15:33.469Z,100.00
2023-10-30T03:18:16.716Z,100.00
2023-10-30T03:20:56.564Z,100.00
2023-10-30T03:23:37.059Z,100.00
2023-10-30T03:26:14.668Z,100.00
2023-10-30T03:28:53.934Z,100.00
2023-10-30T03:31:34.743Z,100.00
2023-10-30T03:34:08.158Z,100.00
2023-10-30T03:36:45.903Z,100.00
2023-10-30T03:39:20.686Z,100.00
2023-10-30T03:41:56.180Z,100.00
2023-10-30T03:44:29.167Z,100.00
2023-10-30T03:47:04.879Z,100.00
2023-10-30T03:49:40.234Z,100.00
2023-10-30T03:52:20.235Z,100.00
2023-10-30T03:54:56.330Z,100.00
2023-10-30T03:57:33.521Z,100.00
2023-10-30T04:00:08.507Z,100.00
2023-10-30T04:02:46.028Z,100.00
2023-10-30T04:05:26.954Z,100.00
2023-10-30T04:08:08.903Z,100.00
2023-10-30T04:10:38.958Z,100.00
2023-10-30T04:13:14.186Z,100.00
2023-10-30T04:15:53.949Z,100.00
2023-10-30T04:18:29.154Z,100.00
2023-10-30T04:21:07.904Z,100.00
2023-10-30T04:23:43.622Z,100.00
2023-10-30T04:26:21.244Z,100.00
2023-10-30T04:28:54.139Z,100.00
2023-10-30T04:31:29.167Z,100.00
2023-10-30T04:34:01.908Z,100.00
2023-10-30T04:36:39.705Z,100.00
2023-10-30T04:39:18.020Z,100.00
2023-10-30T04:41:55.916Z,100.00
2023-10-30T04:44:32.384Z,100.00
2023-10-30T04:47:16.085Z,100.00
2023-10-30T04:49:51.421Z,100.00
2023-10-30T04:52:25.934Z,100.00
2023-10-30T04:55:01.389Z,100.00
2023-10-30T04:57:42.020Z,100.00
2023-10-30T05:00:16.010Z,100.00
2023-10-30T05:02:51.155Z,100.00
2023-10-30T05:05:29.500Z,100.00
2023-10-30T05:08:07.393Z,100.00
2023-10-30T05:10:42.843Z,100.00
2023-10-30T05:13:21.412Z,100.00
2023-10-30T05:15:53.943Z,100.00
2023-10-30T05:18:31.392Z,100.00
2023-10-30T05:21:09.817Z,100.00
2023-10-30T05:23:42.090Z,100.00
2023-10-30T05:26:20.303Z,100.00
2023-10-30T05:29:03.210Z,100.00
2023-10-30T05:31:38.298Z,100.00
2023-10-30T05:34:15.829Z,100.00
2023-10-30T05:36:49.116Z,100.00
2023-10-30T05:39:23.855Z,100.00
2023-10-30T05:42:04.046Z,100.00
2023-10-30T05:44:44.963Z,100.00
2023-10-30T05:47:14.751Z,100.00
2023-10-30T05:49:50.285Z,100.00
2023-10-30T05:52:37.267Z,100.00
2023-10-30T05:55:18.525Z,100.00
2023-10-30T05:57:58.926Z,100.00
2023-10-30T06:00:34.534Z,100.00
2023-10-30T06:03:15.364Z,100.00
2023-10-30T06:05:53.726Z,100.00
2023-10-30T06:08:37.978Z,100.00
2023-10-30T06:11:14.029Z,100.00
2023-10-30T06:13:51.741Z,100.00
2023-10-30T06:16:29.939Z,100.00
2023-10-30T06:19:06.449Z,100.00
2023-10-30T06:21:44.776Z,100.00
2023-10-30T06:24:22.577Z,100.00
2023-10-30T06:26:57.207Z,100.00
2023-10-30T06:29:32.533Z,100.00
2023-10-30T06:32:04.981Z,100.00
2023-10-30T06:34:42.303Z,100.00
2023-10-30T06:37:17.599Z,99.47
2023-10-30T06:39:50.554Z,97.79
2023-10-30T06:42:25.218Z,97.65
2023-10-30T06:45:08.050Z,96.26
2023-10-30T06:47:40.623Z,95.51
2023-10-30T06:50:14.925Z,95.67
2023-10-30T06:52:56.165Z,95.11
2023-10-30T06:55:35.697Z,94.60
2023-10-30T06:58:18.080Z,94.33
2023-10-30T07:01:01.933Z,94.41
2023-10-30T07:03:37.824Z,93.88
2023-10-30T07:06:14.780Z,93.23
2023-10-30T07:08:50.500Z,92.58
2023-10-30T07:11:20.513Z,92.90
2023-10-30T07:13:55.819Z,91.76
2023-10-30T07:16:27.481Z,92.18
2023-10-30T07:19:04.093Z,91.47
2023-10-30T07:21:41.961Z,91.07
2023-10-30T07:24:19.347Z,89.94
2023-10-30T07:26:54.555Z,89.45
2023-10-30T07:29:23.937Z,89.16
2023-10-30T07:32:01.988Z,90.29
2023-10-30T07:34:42.101Z,88.46
2023-10-30T07:37:13.870Z,88.03
2023-10-30T07:39:51.535Z,88.00
2023-10-30T07:42:23.808Z,85.92
2023-10-30T07:44:56.711Z,87.43
2023-10-30T07:47:43.171Z,85.21
2023-10-30T07:50:19.292Z,85.25
2023-10-30T07:52:52.478Z,82.85
2023-10-30T07:55:22.931Z,82.23
2023-10-30T07:57:57.291Z,81.78
2023-10-30T08:00:32.666Z,80.27
2023-10-30T08:03:09.304Z,80.21
2023-10-30T08:05:44.447Z,79.00
2023-10-30T08:08:20.447Z,78.83
2023-10-30T08:10:55.363Z,78.53
2023-10-30T08:13:30.142Z,77.86
2023-10-30T08:16:03.222Z,77.32
2023-10-30T08:18:43.058Z,77.33
2023-10-30T08:21:21.000Z,76.81
2023-10-30T08:23:56.334Z,76.26
2023-10-30T08:26:29.636Z,75.49
2023-10-30T08:29:00.082Z,73.00
2023-10-30T08:31:39.989Z,73.64
2023-10-30T08:34:13.941Z,73.70
2023-10-30T08:36:46.608Z,72.26
2023-10-30T08:39:18.976Z,71.19
2023-10-30T08:41:54.737Z,74.16
2023-10-30T08:44:32.366Z,71.14
2023-10-30T08:47:10.688Z,72.15
2023-10-30T08:49:45.410Z,68.39
2023-10-30T08:52:17.708Z,69.26
2023-10-30T08:54:50.868Z,68.91
2023-10-30T08:57:20.861Z,69.57
2023-10-30T08:59:50.842Z,69.31
2023-10-30T09:02:30.148Z,70.79
2023-10-30T09:05:02.690Z,71.55
2023-10-30T09:07:32.936Z,72.65
2023-10-30T09:10:04.548Z,71.09
2023-10-30T09:12:34.291Z,69.65
2023-10-30T09:15:03.818Z,69.75
2023-10-30T09:17:38.723Z,68.01
2023-10-30T09:20:13.406Z,67.34
2023-10-30T09:22:40.505Z,68.27
2023-10-30T09:25:13.104Z,68.30
2023-10-30T09:27:48.582Z,68.36
2023-10-30T09:30:21.040Z,68.34
2023-10-30T09:32:51.354Z,69.46
2023-10-30T09:35:27.595Z,68.43
2023-10-30T09:38:03.586Z,68.11
2023-10-30T09:40:38.228Z,68.65
2023-10-30T09:43:15.761Z,69.39
2023-10-30T09:45:53.979Z,69.75
2023-10-30T09:48:29.892Z,69.66
2023-10-30T09:51:04.732Z,71.26
2023-10-30T09:53:39.005Z,69.63
2023-10-30T09:56:14.652Z,70.02
2023-10-30T09:58:50.866Z,69.27
2023-10-30T10:01:26.252Z,72.92
2023-10-30T10:04:01.043Z,71.77
2023-10-30T10:06:31.125Z,73.29
2023-10-30T10:09:08.351Z,74.08
2023-10-30T10:11:44.453Z,71.64
2023-10-30T10:14:18.015Z,74.48
2023-10-30T10:16:57.772Z,72.90
2023-10-30T10:19:37.473Z,73.43
2023-10-30T10:22:09.405Z,74.64
2023-10-30T10:24:49.826Z,73.13
2023-10-30T10:27:22.974Z,74.06
2023-10-30T10:29:57.178Z,74.59
2023-10-30T10:32:28.010Z,73.00
2023-10-30T10:35:06.738Z,70.33
2023-10-30T10:37:36.248Z,70.66
2023-10-30T10:40:25.946Z,70.83
2023-10-30T10:43:03.614Z,71.51
2023-10-30T10:45:33.807Z,71.68
2023-10-30T10:48:07.717Z,71.37
2023-10-30T10:50:42.496Z,72.85
2023-10-30T10:53:13.076Z,70.05
2023-10-30T10:55:51.126Z,71.60
2023-10-30T10:58:27.927Z,70.97
2023-10-30T11:01:03.977Z,71.53
2023-10-30T11:03:38.911Z,70.60
2023-10-30T11:06:20.181Z,70.97
2023-10-30T11:09:19.044Z,69.79
2023-10-30T11:11:54.864Z,69.78
2023-10-30T11:14:39.874Z,68.94
2023-10-30T11:17:14.937Z,67.01
2023-10-30T11:19:49.008Z,70.08
2023-10-30T11:22:40.740Z,67.32
2023-10-30T11:25:37.303Z,69.30
2023-10-30T11:28:09.919Z,69.59
2023-10-30T11:30:46.416Z,71.12
2023-10-30T11:33:21.080Z,67.99
2023-10-30T11:36:17.222Z,69.57
2023-10-30T11:38:54.502Z,69.88
2023-10-30T11:41:40.083Z,68.89
2023-10-30T11:44:13.873Z,67.50
2023-10-30T11:46:55.685Z,70.15
2023-10-30T11:49:35.861Z,69.14
2023-10-30T11:52:13.574Z,68.44
2023-10-30T11:54:47.841Z,68.54
2023-10-30T11:57:26.640Z,69.23
2023-10-30T12:00:04.037Z,68.89
2023-10-30T12:02:45.869Z,68.51
2023-10-30T12:05:13.050Z,68.71
2023-10-30T12:07:40.189Z,68.49
2023-10-30T12:10:10.387Z,68.80
2023-10-30T12:12:45.354Z,70.10
2023-10-30T12:15:20.552Z,68.55
2023-10-30T12:17:56.882Z,66.88
2023-10-30T12:20:29.170Z,67.53
2023-10-30T12:23:03.884Z,68.84
2023-10-30T12:25:38.675Z,67.30
2023-10-30T12:28:16.129Z,65.37
2023-10-30T12:30:49.400Z,64.98
2023-10-30T12:33:25.362Z,67.86
2023-10-30T12:35:58.478Z,65.71
2023-10-30T12:38:36.412Z,65.73
2023-10-30T12:41:11.744Z,66.74
2023-10-30T12:43:42.217Z,65.54
2023-10-30T12:46:17.410Z,68.31
2023-10-30T12:48:49.975Z,67.19
2023-10-30T12:51:22.923Z,65.89
2023-10-30T12:53:55.233Z,66.60
2023-10-30T12:56:26.856Z,65.64
2023-10-30T12:58:59.883Z,66.64
2023-10-30T13:01:30.149Z,66.61
2023-10-30T13:04:09.904Z,66.48
2023-10-30T13:06:44.315Z,65.20
2023-10-30T13:09:16.488Z,66.75
2023-10-30T13:12:00.238Z,65.27
2023-10-30T13:14:32.905Z,64.76
2023-10-30T13:17:03.062Z,65.37
2023-10-30T13:19:40.218Z,64.06
2023-10-30T13:22:15.485Z,66.05
2023-10-30T13:24:50.727Z,65.05
2023-10-30T13:27:20.213Z,66.48
2023-10-30T13:29:56.963Z,64.63
2023-10-30T13:32:31.669Z,65.28
2023-10-30T13:35:04.764Z,64.70
2023-10-30T13:37:38.081Z,65.55
2023-10-30T13:40:13.262Z,66.58
2023-10-30T13:42:46.025Z,65.79
2023-10-30T13:45:18.060Z,65.74
2023-10-30T13:47:51.037Z,66.30
2023-10-30T13:50:20.509Z,67.24
2023-10-30T13:52:52.584Z,68.37
2023-10-30T13:55:27.411Z,67.75
2023-10-30T13:57:57.267Z,66.72
2023-10-30T14:00:32.232Z,67.65
2023-10-30T14:03:03.673Z,68.80
2023-10-30T14:05:32.968Z,68.92
2023-10-30T14:08:05.921Z,70.01
2023-10-30T14:10:38.035Z,69.39
2023-10-30T14:13:07.810Z,71.10
2023-10-30T14:15:36.978Z,71.31
2023-10-30T14:18:11.755Z,71.57
2023-10-30T14:20:46.478Z,71.21
2023-10-30T14:23:21.651Z,70.76
2023-10-30T14:25:54.621Z,71.32
2023-10-30T14:28:26.901Z,72.27
2023-10-30T14:30:59.613Z,71.64
2023-10-30T14:33:35.926Z,71.85
2023-10-30T14:36:11.888Z,71.98
2023-10-30T14:38:44.209Z,73.09
2023-10-30T14:41:29.120Z,73.44
2023-10-30T14:44:07.274Z,74.18
2023-10-30T14:46:45.622Z,74.13
2023-10-30T14:49:12.820Z,73.88
2023-10-30T14:51:45.574Z,74.36
2023-10-30T14:54:20.875Z,74.89
2023-10-30T14:56:55.650Z,74.50
2023-10-30T14:59:27.899Z,75.34
2023-10-30T15:01:57.818Z,76.20
2023-10-30T15:04:38.603Z,76.96
2023-10-30T15:07:08.791Z,76.63
2023-10-30T15:09:46.501Z,77.40
2023-10-30T15:12:21.907Z,77.90
2023-10-30T15:15:02.539Z,78.12
2023-10-30T15:17:35.138Z,77.90
2023-10-30T15:20:12.234Z,78.54
2023-10-30T15:22:50.379Z,79.47
2023-10-30T15:25:32.670Z,79.32
2023-10-30T15:28:04.970Z,79.34
2023-10-30T15:30:46.003Z,79.64
2023-10-30T15:33:21.783Z,80.32
2023-10-30T15:35:57.898Z,80.17
2023-10-30T15:38:33.074Z,81.89
2023-10-30T15:41:08.674Z,81.74
2023-10-30T15:43:45.948Z,82.05
2023-10-30T15:46:20.418Z,82.35
2023-10-30T15:48:57.784Z,81.90
2023-10-30T15:51:35.619Z,81.35
2023-10-30T15:59:25.043Z,79.70
2023-10-30T16:02:03.278Z,80.01
2023-10-30T16:05:01.360Z,81.48
2023-10-30T16:07:40.568Z,80.82
2023-10-30T16:12:59.332Z,80.69
2023-10-30T16:15:31.653Z,80.83
2023-10-30T16:18:21.498Z,80.62
2023-10-30T16:21:16.376Z,80.18
2023-10-30T16:24:01.233Z,80.32
2023-10-30T16:26:30.582Z,80.12
2023-10-30T16:29:10.639Z,80.96
2023-10-30T16:31:43.137Z,80.74
2023-10-30T16:36:53.756Z,81.40
2023-10-30T16:39:31.222Z,81.42
2023-10-30T16:42:07.559Z,82.26
2023-10-30T16:44:40.226Z,83.72
2023-10-30T16:47:18.557Z,83.43
2023-10-30T16:49:55.845Z,84.09
2023-10-30T16:52:30.635Z,84.43
2023-10-30T16:55:09.017Z,84.25
2023-10-30T16:57:45.528Z,84.06
2023-10-30T17:00:16.774Z,84.05
2023-10-30T17:03:01.246Z,83.44
2023-10-30T17:05:39.525Z,82.80
2023-10-30T17:08:17.740Z,82.76
2023-10-30T17:11:18.739Z,82.61
2023-10-30T17:14:00.564Z,82.37
2023-10-30T17:16:35.743Z,81.95
2023-10-30T17:19:09.678Z,81.50
2023-10-30T17:21:45.068Z,81.54
2023-10-30T17:24:16.914Z,82.43
2023-10-30T17:26:57.771Z,82.62
2023-10-30T17:29:36.016Z,81.84
2023-10-30T17:32:14.087Z,82.71
2023-10-30T17:34:53.441Z,83.32
2023-10-30T17:37:27.954Z,84.84
2023-10-30T17:40:01.098Z,85.79
2023-10-30T17:42:39.788Z,86.10
2023-10-30T17:45:20.692Z,88.16
2023-10-30T17:47:50.872Z,88.97
2023-10-30T17:50:30.907Z,89.04
2023-10-30T17:53:12.087Z,90.30
2023-10-30T17:55:43.212Z,91.68
2023-10-30T17:58:18.286Z,92.03
2023-10-30T18:00:56.113Z,90.90
2023-10-30T18:03:34.745Z,90.98
2023-10-30T18:06:16.064Z,91.03
2023-10-30T18:08:51.385Z,91.05
2023-10-30T18:11:24.139Z,90.42
2023-10-30T18:13:56.109Z,90.10
2023-10-30T18:16:41.500Z,91.82
2023-10-30T18:19:24.915Z,91.64
2023-10-30T18:22:03.221Z,91.70
2023-10-30T18:24:41.926Z,92.58
2023-10-30T18:27:22.823Z,93.58
2023-10-30T18:30:01.933Z,93.38
2023-10-30T18:32:57.206Z,92.95
2023-10-30T18:35:38.013Z,91.67
2023-10-30T18:38:15.757Z,91.78
2023-10-30T18:40:50.638Z,92.15
2023-10-30T18:43:26.179Z,93.15
2023-10-30T18:46:09.423Z,93.46
2023-10-30T18:48:50.989Z,92.80
2023-10-30T18:51:27.322Z,92.51
2023-10-30T18:54:07.914Z,92.46
2023-10-30T18:56:41.081Z,91.84
2023-10-30T18:59:24.947Z,91.19
2023-10-30T19:02:00.358Z,90.39
2023-10-30T19:04:43.327Z,91.17
2023-10-30T19:07:27.106Z,91.91
2023-10-30T19:10:07.643Z,92.78
2023-10-30T19:12:42.746Z,93.87
2023-10-30T19:15:22.119Z,94.94
2023-10-30T19:17:55.032Z,95.26
2023-10-30T19:20:27.618Z,95.83
2023-10-30T19:23:07.696Z,96.03
2023-10-30T19:25:46.781Z,95.42
2023-10-30T19:28:16.837Z,96.67
2023-10-30T19:30:54.665Z,98.14
2023-10-30T19:33:31.732Z,98.24
2023-10-30T19:36:12.027Z,97.35
2023-10-30T19:39:02.031Z,96.85
2023-10-30T19:41:44.489Z,95.52
2023-10-30T19:44:22.494Z,95.89
2023-10-30T19:46:54.948Z,95.78
2023-10-30T19:49:36.475Z,95.09
2023-10-30T19:52:12.500Z,96.21
2023-10-30T19:55:04.775Z,97.15
2023-10-30T19:57:49.618Z,97.87
2023-10-30T20:00:27.077Z,99.66
2023-10-30T20:03:05.068Z,99.73
2023-10-30T20:05:45.412Z,99.24
2023-10-30T20:08:18.027Z,99.52
2023-10-30T20:10:52.880Z,99.76
2023-10-30T20:13:32.985Z,100.00
2023-10-30T20:16:11.275Z,100.00
2023-10-30T20:18:47.934Z,100.00
2023-10-30T20:21:32.878Z,100.00
2023-10-30T20:24:10.292Z,100.00
2023-10-30T20:26:52.173Z,100.00
2023-10-30T20:29:25.191Z,99.51
2023-10-30T20:32:03.988Z,99.06
2023-10-30T20:34:40.866Z,98.65
2023-10-30T20:37:18.522Z,98.17
2023-10-30T20:39:59.734Z,98.48
2023-10-30T20:42:34.836Z,98.54
2023-10-30T20:45:13.944Z,98.73
2023-10-30T20:47:45.995Z,99.05
2023-10-30T20:50:26.075Z,100.00
2023-10-30T20:53:00.751Z,100.00
2023-10-30T20:55:40.610Z,100.00
2023-10-30T20:58:18.016Z,100.00
2023-10-30T21:00:51.433Z,100.00
2023-10-30T21:03:27.937Z,100.00
2023-10-30T21:06:03.380Z,100.00
2023-10-30T21:08:43.613Z,100.00
2023-10-30T21:11:16.360Z,100.00
2023-10-30T21:13:51.735Z,100.00
2023-10-30T21:16:26.890Z,100.00
2023-10-30T21:19:02.311Z,100.00
2023-10-30T21:21:38.015Z,100.00
2023-10-30T21:24:13.307Z,100.00
2023-10-30T21:26:46.793Z,100.00
2023-10-30T21:29:22.241Z,100.00
2023-10-30T21:32:00.898Z,100.00
2023-10-30T21:34:33.961Z,100.00
2023-10-30T21:37:15.168Z,100.00
2023-10-30T21:39:51.167Z,100.00
2023-10-30T21:42:29.345Z,100.00
2023-10-30T21:45:07.933Z,100.00
2023-10-30T21:47:42.564Z,100.00
2023-10-30T21:50:20.196Z,100.00
2023-10-30T21:52:55.943Z,100.00
2023-10-30T21:55:33.454Z,100.00
2023-10-30T21:58:11.735Z,100.00
2023-10-30T22:00:50.973Z,100.00
2023-10-30T22:03:23.203Z,100.00
2023-10-30T22:05:59.956Z,100.00
2023-10-30T22:08:35.639Z,100.00
2023-10-30T22:11:15.975Z,100.00
2023-10-30T22:13:53.760Z,100.00
2023-10-30T22:16:28.770Z,100.00
2023-10-30T22:19:04.063Z,100.00
2023-10-30T22:21:42.365Z,100.00
2023-10-30T22:24:17.808Z,100.00
2023-10-30T22:26:56.534Z,100.00
2023-10-30T22:29:34.179Z,100.00
2023-10-30T22:32:13.326Z,100.00
2023-10-30T22:34:48.527Z,100.00
2023-10-30T22:37:32.389Z,100.00
2023-10-30T22:40:06.855Z,100.00
2023-10-30T22:42:40.382Z,100.00
2023-10-30T22:45:14.948Z,100.00
2023-10-30T22:47:53.087Z,100.00
2023-10-30T22:50:36.426Z,100.00
2023-10-30T22:53:13.764Z,100.00
2023-10-30T22:55:50.042Z,100.00
2023-10-30T22:58:22.301Z,100.00
2023-10-30T23:00:57.031Z,100.00
2023-10-30T23:03:34.775Z,100.00
2023-10-30T23:06:16.264Z,100.00
2023-10-30T23:08:48.684Z,100.00
2023-10-30T23:11:24.108Z,100.00
2023-10-30T23:13:59.121Z,100.00
2023-10-30T23:16:34.571Z,100.00
2023-10-30T23:19:07.244Z,100.00
2023-10-30T23:21:44.905Z,100.00
2023-10-30T23:24:25.556Z,100.00
2023-10-30T23:27:05.814Z,100.00
2023-10-30T23:29:41.315Z,100.00
2023-10-30T23:32:19.646Z,100.00
2023-10-30T23:34:51.965Z,100.00
2023-10-30T23:37:32.726Z,100.00
2023-10-30T23:40:05.468Z,100.00
2023-10-30T23:42:40.712Z,100.00
2023-10-30T23:45:21.304Z,100.00
2023-10-30T23:47:58.962Z,100.00
2023-10-30T23:50:34.720Z,100.00
2023-10-30T23:53:09.926Z,100.00
2023-10-30T23:55:44.509Z,100.00
2023-10-30T23:58:24.832Z,100.00
